sensor_id;sensor_type;location;lat;lon;timestamp;P1;durP1;ratioP1;P2;durP2;ratioP2
70414;SDS011;57837;52.064;113.478;2023-04-03T00:02:09;8.77;;;2.28;;
70414;SDS011;57837;52.064;113.478;2023-04-03T00:05:12;6.53;;;2.30;;
70414;SDS011;57837;52.064;113.478;2023-04-03T00:08:15;3.75;;;2.33;;
70414;SDS011;57837;52.064;113.478;2023-04-03T00:11:18;4.20;;;2.00;;
70414;SDS011;57837;52.064;113.478;2023-04-03T00:14:22;5.10;;;1.77;;
70414;SDS011;57837;52.064;113.478;2023-04-03T00:17:27;10.82;;;5.90;;
70414;SDS011;57837;52.064;113.478;2023-04-03T00:20:30;7.93;;;2.45;;
70414;SDS011;57837;52.064;113.478;2023-04-03T00:23:33;7.88;;;3.45;;
70414;SDS011;57837;52.064;113.478;2023-04-03T00:26:37;7.90;;;2.27;;
70414;SDS011;57837;52.064;113.478;2023-04-03T00:29:40;5.47;;;1.60;;
70414;SDS011;57837;52.064;113.478;2023-04-03T00:32:43;7.72;;;2.33;;
70414;SDS011;57837;52.064;113.478;2023-04-03T00:35:47;4.40;;;1.80;;
70414;SDS011;57837;52.064;113.478;2023-04-03T00:38:51;3.53;;;1.58;;
70414;SDS011;57837;52.064;113.478;2023-04-03T00:41:55;5.57;;;1.70;;
70414;SDS011;57837;52.064;113.478;2023-04-03T00:48:04;9.63;;;2.00;;
70414;SDS011;57837;52.064;113.478;2023-04-03T00:51:17;5.20;;;1.92;;
70414;SDS011;57837;52.064;113.478;2023-04-03T00:54:26;4.68;;;1.67;;
70414;SDS011;57837;52.064;113.478;2023-04-03T00:57:30;4.13;;;1.73;;
70414;SDS011;57837;52.064;113.478;2023-04-03T01:00:36;5.33;;;2.53;;
70414;SDS011;57837;52.064;113.478;2023-04-03T01:03:43;2.92;;;1.40;;
70414;SDS011;57837;52.064;113.478;2023-04-03T01:06:48;4.40;;;1.95;;
70414;SDS011;57837;52.064;113.478;2023-04-03T01:09:52;5.38;;;2.08;;
70414;SDS011;57837;52.064;113.478;2023-04-03T01:12:59;7.60;;;2.93;;
70414;SDS011;57837;52.064;113.478;2023-04-03T01:16:04;8.40;;;2.30;;
70414;SDS011;57837;52.064;113.478;2023-04-03T01:19:11;6.25;;;2.60;;
70414;SDS011;57837;52.064;113.478;2023-04-03T01:22:19;7.05;;;1.73;;
70414;SDS011;57837;52.064;113.478;2023-04-03T01:25:33;2.38;;;1.30;;
70414;SDS011;57837;52.064;113.478;2023-04-03T01:28:37;5.03;;;1.70;;
70414;SDS011;57837;52.064;113.478;2023-04-03T01:34:59;19.30;;;3.03;;
70414;SDS011;57837;52.064;113.478;2023-04-03T01:38:06;5.85;;;2.35;;
70414;SDS011;57837;52.064;113.478;2023-04-03T01:41:10;5.13;;;1.90;;
70414;SDS011;57837;52.064;113.478;2023-04-03T01:44:15;4.67;;;2.03;;
70414;SDS011;57837;52.064;113.478;2023-04-03T01:47:19;3.60;;;1.53;;
70414;SDS011;57837;52.064;113.478;2023-04-03T01:50:24;9.63;;;1.83;;
70414;SDS011;57837;52.064;113.478;2023-04-03T01:53:28;5.05;;;2.00;;
70414;SDS011;57837;52.064;113.478;2023-04-03T01:56:32;4.68;;;1.48;;
70414;SDS011;57837;52.064;113.478;2023-04-03T01:59:35;5.97;;;1.70;;
70414;SDS011;57837;52.064;113.478;2023-04-03T02:02:40;3.20;;;1.50;;
70414;SDS011;57837;52.064;113.478;2023-04-03T02:05:44;6.05;;;1.30;;
70414;SDS011;57837;52.064;113.478;2023-04-03T02:08:48;3.03;;;1.40;;
70414;SDS011;57837;52.064;113.478;2023-04-03T02:11:52;3.92;;;1.60;;
70414;SDS011;57837;52.064;113.478;2023-04-03T02:14:56;3.10;;;1.57;;
70414;SDS011;57837;52.064;113.478;2023-04-03T02:18:00;3.03;;;1.50;;
70414;SDS011;57837;52.064;113.478;2023-04-03T02:21:09;4.30;;;1.60;;
70414;SDS011;57837;52.064;113.478;2023-04-03T02:24:12;3.20;;;1.00;;
70414;SDS011;57837;52.064;113.478;2023-04-03T02:27:17;3.38;;;1.50;;
70414;SDS011;57837;52.064;113.478;2023-04-03T02:30:22;2.37;;;1.20;;
70414;SDS011;57837;52.064;113.478;2023-04-03T02:33:25;1.83;;;1.07;;
70414;SDS011;57837;52.064;113.478;2023-04-03T02:36:29;4.43;;;1.48;;
70414;SDS011;57837;52.064;113.478;2023-04-03T02:39:37;3.67;;;1.50;;
70414;SDS011;57837;52.064;113.478;2023-04-03T02:42:40;2.72;;;1.38;;
70414;SDS011;57837;52.064;113.478;2023-04-03T02:45:44;7.13;;;1.77;;
70414;SDS011;57837;52.064;113.478;2023-04-03T02:48:47;3.47;;;1.50;;
70414;SDS011;57837;52.064;113.478;2023-04-03T02:51:52;2.17;;;1.30;;
70414;SDS011;57837;52.064;113.478;2023-04-03T02:54:55;3.28;;;1.85;;
70414;SDS011;57837;52.064;113.478;2023-04-03T02:57:59;3.25;;;1.30;;
70414;SDS011;57837;52.064;113.478;2023-04-03T03:01:03;2.67;;;1.40;;
70414;SDS011;57837;52.064;113.478;2023-04-03T03:04:07;3.83;;;1.90;;
70414;SDS011;57837;52.064;113.478;2023-04-03T03:07:11;2.47;;;1.30;;
70414;SDS011;57837;52.064;113.478;2023-04-03T03:10:15;4.07;;;1.30;;
70414;SDS011;57837;52.064;113.478;2023-04-03T03:13:19;3.65;;;1.30;;
70414;SDS011;57837;52.064;113.478;2023-04-03T03:16:23;3.27;;;1.57;;
70414;SDS011;57837;52.064;113.478;2023-04-03T03:19:26;6.10;;;1.77;;
70414;SDS011;57837;52.064;113.478;2023-04-03T03:22:31;3.47;;;1.25;;
70414;SDS011;57837;52.064;113.478;2023-04-03T03:25:41;4.15;;;1.40;;
70414;SDS011;57837;52.064;113.478;2023-04-03T03:28:44;5.78;;;1.23;;
70414;SDS011;57837;52.064;113.478;2023-04-03T03:31:48;4.47;;;1.27;;
70414;SDS011;57837;52.064;113.478;2023-04-03T03:34:51;2.13;;;1.10;;
70414;SDS011;57837;52.064;113.478;2023-04-03T03:37:55;3.00;;;1.30;;
70414;SDS011;57837;52.064;113.478;2023-04-03T03:40:59;4.10;;;1.65;;
70414;SDS011;57837;52.064;113.478;2023-04-03T03:44:04;4.88;;;1.98;;
70414;SDS011;57837;52.064;113.478;2023-04-03T03:47:08;7.77;;;1.60;;
70414;SDS011;57837;52.064;113.478;2023-04-03T03:50:13;6.83;;;2.10;;
70414;SDS011;57837;52.064;113.478;2023-04-03T03:53:17;7.57;;;1.35;;
70414;SDS011;57837;52.064;113.478;2023-04-03T03:56:26;3.28;;;1.50;;
70414;SDS011;57837;52.064;113.478;2023-04-03T03:59:30;5.63;;;2.25;;
70414;SDS011;57837;52.064;113.478;2023-04-03T04:02:33;4.23;;;1.40;;
70414;SDS011;57837;52.064;113.478;2023-04-03T04:05:38;3.73;;;1.63;;
70414;SDS011;57837;52.064;113.478;2023-04-03T04:08:42;4.85;;;1.85;;
70414;SDS011;57837;52.064;113.478;2023-04-03T04:11:47;5.38;;;1.20;;
70414;SDS011;57837;52.064;113.478;2023-04-03T04:14:51;6.43;;;1.17;;
70414;SDS011;57837;52.064;113.478;2023-04-03T04:17:56;6.13;;;1.73;;
70414;SDS011;57837;52.064;113.478;2023-04-03T04:20:59;4.90;;;1.30;;
70414;SDS011;57837;52.064;113.478;2023-04-03T04:24:04;3.10;;;1.30;;
70414;SDS011;57837;52.064;113.478;2023-04-03T04:27:10;4.00;;;1.20;;
70414;SDS011;57837;52.064;113.478;2023-04-03T04:30:14;1.95;;;0.90;;
70414;SDS011;57837;52.064;113.478;2023-04-03T04:33:20;2.37;;;1.30;;
70414;SDS011;57837;52.064;113.478;2023-04-03T04:36:24;4.00;;;1.83;;
70414;SDS011;57837;52.064;113.478;2023-04-03T04:39:28;6.47;;;1.48;;
70414;SDS011;57837;52.064;113.478;2023-04-03T04:42:32;4.15;;;2.13;;
70414;SDS011;57837;52.064;113.478;2023-04-03T04:45:36;4.20;;;1.40;;
70414;SDS011;57837;52.064;113.478;2023-04-03T04:48:41;2.03;;;0.93;;
70414;SDS011;57837;52.064;113.478;2023-04-03T04:51:45;3.60;;;0.90;;
70414;SDS011;57837;52.064;113.478;2023-04-03T04:55:00;3.65;;;1.23;;
70414;SDS011;57837;52.064;113.478;2023-04-03T04:58:04;2.75;;;1.30;;
70414;SDS011;57837;52.064;113.478;2023-04-03T05:01:10;3.13;;;1.13;;
70414;SDS011;57837;52.064;113.478;2023-04-03T05:04:25;5.17;;;1.80;;
70414;SDS011;57837;52.064;113.478;2023-04-03T05:07:35;3.90;;;1.03;;
70414;SDS011;57837;52.064;113.478;2023-04-03T05:10:39;3.40;;;1.52;;
70414;SDS011;57837;52.064;113.478;2023-04-03T05:13:45;5.28;;;1.60;;
70414;SDS011;57837;52.064;113.478;2023-04-03T05:16:49;2.50;;;1.40;;
70414;SDS011;57837;52.064;113.478;2023-04-03T05:19:59;4.90;;;1.60;;
70414;SDS011;57837;52.064;113.478;2023-04-03T05:23:03;4.10;;;1.87;;
70414;SDS011;57837;52.064;113.478;2023-04-03T05:26:09;4.88;;;1.60;;
70414;SDS011;57837;52.064;113.478;2023-04-03T05:29:13;2.72;;;1.33;;
70414;SDS011;57837;52.064;113.478;2023-04-03T05:32:18;3.97;;;1.92;;
70414;SDS011;57837;52.064;113.478;2023-04-03T05:35:26;8.73;;;2.07;;
70414;SDS011;57837;52.064;113.478;2023-04-03T05:38:33;6.10;;;1.60;;
70414;SDS011;57837;52.064;113.478;2023-04-03T05:41:36;4.68;;;2.00;;
70414;SDS011;57837;52.064;113.478;2023-04-03T05:44:40;6.90;;;2.10;;
70414;SDS011;57837;52.064;113.478;2023-04-03T05:47:44;5.25;;;2.03;;
70414;SDS011;57837;52.064;113.478;2023-04-03T05:50:48;3.80;;;1.50;;
70414;SDS011;57837;52.064;113.478;2023-04-03T05:53:59;5.27;;;1.93;;
70414;SDS011;57837;52.064;113.478;2023-04-03T05:57:16;3.80;;;2.03;;
70414;SDS011;57837;52.064;113.478;2023-04-03T06:00:21;4.70;;;2.10;;
70414;SDS011;57837;52.064;113.478;2023-04-03T06:03:34;4.32;;;2.10;;
70414;SDS011;57837;52.064;113.478;2023-04-03T06:09:59;4.80;;;2.53;;
70414;SDS011;57837;52.064;113.478;2023-04-03T06:13:07;3.10;;;1.60;;
70414;SDS011;57837;52.064;113.478;2023-04-03T06:16:13;3.83;;;1.60;;
70414;SDS011;57837;52.064;113.478;2023-04-03T06:19:19;3.13;;;1.50;;
70414;SDS011;57837;52.064;113.478;2023-04-03T06:22:27;4.43;;;1.77;;
70414;SDS011;57837;52.064;113.478;2023-04-03T06:25:32;10.70;;;1.90;;
70414;SDS011;57837;52.064;113.478;2023-04-03T06:28:36;3.92;;;2.00;;
70414;SDS011;57837;52.064;113.478;2023-04-03T06:31:40;6.90;;;1.38;;
70414;SDS011;57837;52.064;113.478;2023-04-03T06:34:44;4.88;;;1.58;;
70414;SDS011;57837;52.064;113.478;2023-04-03T06:37:49;3.60;;;1.43;;
70414;SDS011;57837;52.064;113.478;2023-04-03T06:40:52;2.80;;;1.20;;
70414;SDS011;57837;52.064;113.478;2023-04-03T06:43:56;4.40;;;1.60;;
70414;SDS011;57837;52.064;113.478;2023-04-03T06:47:01;5.35;;;1.40;;
70414;SDS011;57837;52.064;113.478;2023-04-03T06:50:04;7.10;;;1.95;;
70414;SDS011;57837;52.064;113.478;2023-04-03T06:53:09;2.57;;;1.40;;
70414;SDS011;57837;52.064;113.478;2023-04-03T06:56:13;3.73;;;1.63;;
70414;SDS011;57837;52.064;113.478;2023-04-03T06:59:18;3.80;;;1.58;;
70414;SDS011;57837;52.064;113.478;2023-04-03T07:02:23;2.17;;;1.20;;
70414;SDS011;57837;52.064;113.478;2023-04-03T07:05:26;2.72;;;1.33;;
70414;SDS011;57837;52.064;113.478;2023-04-03T07:08:30;3.50;;;1.10;;
70414;SDS011;57837;52.064;113.478;2023-04-03T07:11:35;3.88;;;1.77;;
70414;SDS011;57837;52.064;113.478;2023-04-03T07:14:39;8.77;;;1.90;;
70414;SDS011;57837;52.064;113.478;2023-04-03T07:17:43;3.20;;;1.63;;
70414;SDS011;57837;52.064;113.478;2023-04-03T07:20:47;5.05;;;2.13;;
70414;SDS011;57837;52.064;113.478;2023-04-03T07:23:50;8.23;;;2.20;;
70414;SDS011;57837;52.064;113.478;2023-04-03T07:26:54;7.43;;;1.80;;
70414;SDS011;57837;52.064;113.478;2023-04-03T07:29:58;4.47;;;1.90;;
70414;SDS011;57837;52.064;113.478;2023-04-03T07:33:02;3.47;;;1.70;;
70414;SDS011;57837;52.064;113.478;2023-04-03T07:36:06;3.47;;;1.20;;
70414;SDS011;57837;52.064;113.478;2023-04-03T07:39:10;2.77;;;1.00;;
70414;SDS011;57837;52.064;113.478;2023-04-03T07:42:14;2.20;;;1.30;;
70414;SDS011;57837;52.064;113.478;2023-04-03T07:45:18;6.72;;;1.33;;
70414;SDS011;57837;52.064;113.478;2023-04-03T07:48:23;4.38;;;1.58;;
70414;SDS011;57837;52.064;113.478;2023-04-03T07:51:27;6.65;;;1.30;;
70414;SDS011;57837;52.064;113.478;2023-04-03T07:54:33;4.97;;;1.30;;
70414;SDS011;57837;52.064;113.478;2023-04-03T07:57:37;7.28;;;1.45;;
70414;SDS011;57837;52.064;113.478;2023-04-03T08:00:41;5.30;;;1.58;;
70414;SDS011;57837;52.064;113.478;2023-04-03T08:03:45;4.13;;;1.10;;
70414;SDS011;57837;52.064;113.478;2023-04-03T08:06:50;8.15;;;1.42;;
70414;SDS011;57837;52.064;113.478;2023-04-03T08:09:54;3.07;;;1.20;;
70414;SDS011;57837;52.064;113.478;2023-04-03T08:12:58;5.78;;;2.05;;
70414;SDS011;57837;52.064;113.478;2023-04-03T08:16:08;4.93;;;1.58;;
70414;SDS011;57837;52.064;113.478;2023-04-03T08:19:14;7.53;;;1.75;;
70414;SDS011;57837;52.064;113.478;2023-04-03T08:22:27;6.20;;;1.58;;
70414;SDS011;57837;52.064;113.478;2023-04-03T08:25:30;5.63;;;1.40;;
70414;SDS011;57837;52.064;113.478;2023-04-03T08:28:34;2.30;;;1.20;;
70414;SDS011;57837;52.064;113.478;2023-04-03T08:31:38;3.70;;;1.27;;
70414;SDS011;57837;52.064;113.478;2023-04-03T08:34:42;3.15;;;1.48;;
70414;SDS011;57837;52.064;113.478;2023-04-03T08:37:45;3.65;;;1.67;;
70414;SDS011;57837;52.064;113.478;2023-04-03T08:41:36;3.17;;;1.57;;
70414;SDS011;57837;52.064;113.478;2023-04-03T08:44:52;6.65;;;1.30;;
70414;SDS011;57837;52.064;113.478;2023-04-03T08:48:11;5.53;;;1.40;;
70414;SDS011;57837;52.064;113.478;2023-04-03T08:51:30;11.73;;;2.10;;
70414;SDS011;57837;52.064;113.478;2023-04-03T08:54:35;6.85;;;2.17;;
70414;SDS011;57837;52.064;113.478;2023-04-03T08:58:01;7.73;;;2.13;;
70414;SDS011;57837;52.064;113.478;2023-04-03T09:01:50;6.35;;;2.33;;
70414;SDS011;57837;52.064;113.478;2023-04-03T09:04:42;3.30;;;1.65;;
70414;SDS011;57837;52.064;113.478;2023-04-03T09:07:51;3.72;;;1.65;;
70414;SDS011;57837;52.064;113.478;2023-04-03T09:14:33;5.73;;;2.30;;
70414;SDS011;57837;52.064;113.478;2023-04-03T09:17:46;7.57;;;1.80;;
70414;SDS011;57837;52.064;113.478;2023-04-03T09:21:13;5.68;;;2.30;;
70414;SDS011;57837;52.064;113.478;2023-04-03T09:24:24;5.05;;;2.03;;
70414;SDS011;57837;52.064;113.478;2023-04-03T09:27:28;11.45;;;2.97;;
70414;SDS011;57837;52.064;113.478;2023-04-03T09:30:56;6.07;;;1.60;;
70414;SDS011;57837;52.064;113.478;2023-04-03T09:34:01;4.28;;;1.27;;
70414;SDS011;57837;52.064;113.478;2023-04-03T09:37:08;7.35;;;1.75;;
70414;SDS011;57837;52.064;113.478;2023-04-03T09:43:40;5.47;;;2.17;;
70414;SDS011;57837;52.064;113.478;2023-04-03T09:46:55;8.47;;;2.20;;
70414;SDS011;57837;52.064;113.478;2023-04-03T09:53:42;5.70;;;1.90;;
70414;SDS011;57837;52.064;113.478;2023-04-03T09:56:50;5.15;;;2.17;;
70414;SDS011;57837;52.064;113.478;2023-04-03T10:00:21;4.38;;;2.05;;
70414;SDS011;57837;52.064;113.478;2023-04-03T10:04:13;8.17;;;2.17;;
70414;SDS011;57837;52.064;113.478;2023-04-03T10:07:40;4.90;;;2.08;;
70414;SDS011;57837;52.064;113.478;2023-04-03T10:18:02;7.57;;;2.35;;
70414;SDS011;57837;52.064;113.478;2023-04-03T10:21:57;11.20;;;3.50;;
70414;SDS011;57837;52.064;113.478;2023-04-03T10:30:08;7.22;;;2.65;;
70414;SDS011;57837;52.064;113.478;2023-04-03T10:44:58;11.32;;;4.50;;
70414;SDS011;57837;52.064;113.478;2023-04-03T10:51:29;6.65;;;2.78;;
70414;SDS011;57837;52.064;113.478;2023-04-03T10:58:36;6.25;;;2.60;;
70414;SDS011;57837;52.064;113.478;2023-04-03T11:08:49;7.25;;;3.10;;
70414;SDS011;57837;52.064;113.478;2023-04-03T11:12:13;5.97;;;2.92;;
70414;SDS011;57837;52.064;113.478;2023-04-03T11:15:19;6.28;;;2.47;;
70414;SDS011;57837;52.064;113.478;2023-04-03T11:22:43;7.70;;;2.20;;
70414;SDS011;57837;52.064;113.478;2023-04-03T11:26:05;7.25;;;2.40;;
70414;SDS011;57837;52.064;113.478;2023-04-03T11:29:38;5.38;;;2.50;;
70414;SDS011;57837;52.064;113.478;2023-04-03T11:36:50;13.87;;;3.43;;
70414;SDS011;57837;52.064;113.478;2023-04-03T11:40:00;7.55;;;3.05;;
70414;SDS011;57837;52.064;113.478;2023-04-03T11:43:18;13.40;;;4.38;;
70414;SDS011;57837;52.064;113.478;2023-04-03T11:46:53;13.25;;;4.68;;
70414;SDS011;57837;52.064;113.478;2023-04-03T11:53:49;13.27;;;4.22;;
70414;SDS011;57837;52.064;113.478;2023-04-03T12:01:06;11.38;;;3.80;;
70414;SDS011;57837;52.064;113.478;2023-04-03T12:04:14;5.20;;;2.17;;
70414;SDS011;57837;52.064;113.478;2023-04-03T12:07:22;6.72;;;2.45;;
70414;SDS011;57837;52.064;113.478;2023-04-03T12:10:27;7.43;;;1.80;;
70414;SDS011;57837;52.064;113.478;2023-04-03T12:17:02;11.70;;;4.30;;
70414;SDS011;57837;52.064;113.478;2023-04-03T12:27:26;6.72;;;2.38;;
70414;SDS011;57837;52.064;113.478;2023-04-03T12:30:57;8.17;;;2.50;;
70414;SDS011;57837;52.064;113.478;2023-04-03T12:48:30;7.70;;;2.30;;
70414;SDS011;57837;52.064;113.478;2023-04-03T12:51:59;10.68;;;2.92;;
70414;SDS011;57837;52.064;113.478;2023-04-03T12:55:27;3.75;;;1.73;;
70414;SDS011;57837;52.064;113.478;2023-04-03T12:58:31;5.53;;;2.05;;
70414;SDS011;57837;52.064;113.478;2023-04-03T13:01:37;7.43;;;2.40;;
70414;SDS011;57837;52.064;113.478;2023-04-03T13:04:41;13.10;;;4.10;;
70414;SDS011;57837;52.064;113.478;2023-04-03T13:08:09;9.90;;;3.13;;
70414;SDS011;57837;52.064;113.478;2023-04-03T13:11:19;9.55;;;2.58;;
70414;SDS011;57837;52.064;113.478;2023-04-03T13:14:27;7.80;;;3.03;;
70414;SDS011;57837;52.064;113.478;2023-04-03T13:17:40;5.78;;;2.25;;
70414;SDS011;57837;52.064;113.478;2023-04-03T13:20:46;7.15;;;2.95;;
70414;SDS011;57837;52.064;113.478;2023-04-03T13:23:55;8.65;;;2.78;;
70414;SDS011;57837;52.064;113.478;2023-04-03T13:27:40;6.10;;;3.28;;
70414;SDS011;57837;52.064;113.478;2023-04-03T13:34:50;9.88;;;3.50;;
70414;SDS011;57837;52.064;113.478;2023-04-03T13:41:27;13.35;;;3.55;;
70414;SDS011;57837;52.064;113.478;2023-04-03T13:44:39;13.70;;;4.72;;
70414;SDS011;57837;52.064;113.478;2023-04-03T13:47:44;10.70;;;4.10;;
70414;SDS011;57837;52.064;113.478;2023-04-03T13:50:54;8.73;;;3.65;;
70414;SDS011;57837;52.064;113.478;2023-04-03T13:54:28;12.27;;;4.35;;
70414;SDS011;57837;52.064;113.478;2023-04-03T13:57:48;8.77;;;3.83;;
70414;SDS011;57837;52.064;113.478;2023-04-03T14:05:10;12.82;;;3.95;;
70414;SDS011;57837;52.064;113.478;2023-04-03T14:08:00;6.10;;;2.90;;
70414;SDS011;57837;52.064;113.478;2023-04-03T14:11:05;8.13;;;3.63;;
70414;SDS011;57837;52.064;113.478;2023-04-03T14:14:13;8.82;;;3.13;;
70414;SDS011;57837;52.064;113.478;2023-04-03T14:17:20;8.10;;;2.90;;
70414;SDS011;57837;52.064;113.478;2023-04-03T14:20:26;6.43;;;2.40;;
70414;SDS011;57837;52.064;113.478;2023-04-03T14:23:30;9.95;;;3.13;;
70414;SDS011;57837;52.064;113.478;2023-04-03T14:26:36;11.50;;;3.78;;
70414;SDS011;57837;52.064;113.478;2023-04-03T14:29:40;10.80;;;3.38;;
70414;SDS011;57837;52.064;113.478;2023-04-03T14:32:44;7.30;;;2.97;;
70414;SDS011;57837;52.064;113.478;2023-04-03T14:35:48;7.75;;;2.90;;
70414;SDS011;57837;52.064;113.478;2023-04-03T14:38:51;7.45;;;3.08;;
70414;SDS011;57837;52.064;113.478;2023-04-03T14:41:55;10.53;;;2.97;;
70414;SDS011;57837;52.064;113.478;2023-04-03T14:44:59;9.40;;;2.55;;
70414;SDS011;57837;52.064;113.478;2023-04-03T14:48:03;8.32;;;2.67;;
70414;SDS011;57837;52.064;113.478;2023-04-03T14:51:08;7.15;;;2.30;;
70414;SDS011;57837;52.064;113.478;2023-04-03T14:54:16;5.40;;;2.00;;
70414;SDS011;57837;52.064;113.478;2023-04-03T14:57:24;8.00;;;2.47;;
70414;SDS011;57837;52.064;113.478;2023-04-03T15:00:30;8.75;;;2.65;;
70414;SDS011;57837;52.064;113.478;2023-04-03T15:03:34;8.87;;;2.10;;
70414;SDS011;57837;52.064;113.478;2023-04-03T15:06:38;6.50;;;2.45;;
70414;SDS011;57837;52.064;113.478;2023-04-03T15:09:44;9.05;;;2.65;;
70414;SDS011;57837;52.064;113.478;2023-04-03T15:12:48;11.77;;;2.77;;
70414;SDS011;57837;52.064;113.478;2023-04-03T15:15:52;9.55;;;2.38;;
70414;SDS011;57837;52.064;113.478;2023-04-03T15:18:57;7.05;;;2.40;;
70414;SDS011;57837;52.064;113.478;2023-04-03T15:22:00;12.10;;;2.30;;
70414;SDS011;57837;52.064;113.478;2023-04-03T15:25:04;6.25;;;2.38;;
70414;SDS011;57837;52.064;113.478;2023-04-03T15:28:09;6.22;;;1.98;;
70414;SDS011;57837;52.064;113.478;2023-04-03T15:31:19;8.73;;;2.00;;
70414;SDS011;57837;52.064;113.478;2023-04-03T15:34:25;5.47;;;1.83;;
70414;SDS011;57837;52.064;113.478;2023-04-03T15:37:28;11.15;;;3.40;;
70414;SDS011;57837;52.064;113.478;2023-04-03T15:40:32;11.45;;;2.78;;
70414;SDS011;57837;52.064;113.478;2023-04-03T15:43:38;10.87;;;2.73;;
70414;SDS011;57837;52.064;113.478;2023-04-03T15:46:45;5.65;;;2.00;;
70414;SDS011;57837;52.064;113.478;2023-04-03T15:49:54;12.50;;;3.00;;
70414;SDS011;57837;52.064;113.478;2023-04-03T15:52:59;8.68;;;2.72;;
70414;SDS011;57837;52.064;113.478;2023-04-03T15:56:04;14.93;;;4.03;;
70414;SDS011;57837;52.064;113.478;2023-04-03T15:59:08;11.88;;;4.20;;
70414;SDS011;57837;52.064;113.478;2023-04-03T16:02:12;18.10;;;5.32;;
70414;SDS011;57837;52.064;113.478;2023-04-03T16:05:16;7.83;;;3.20;;
70414;SDS011;57837;52.064;113.478;2023-04-03T16:08:20;10.80;;;3.28;;
70414;SDS011;57837;52.064;113.478;2023-04-03T16:11:25;10.85;;;3.30;;
70414;SDS011;57837;52.064;113.478;2023-04-03T16:14:28;13.30;;;3.47;;
70414;SDS011;57837;52.064;113.478;2023-04-03T16:17:32;9.98;;;3.78;;
70414;SDS011;57837;52.064;113.478;2023-04-03T16:20:37;9.82;;;3.80;;
70414;SDS011;57837;52.064;113.478;2023-04-03T16:23:43;14.07;;;4.00;;
70414;SDS011;57837;52.064;113.478;2023-04-03T16:26:46;11.63;;;4.80;;
70414;SDS011;57837;52.064;113.478;2023-04-03T16:29:50;11.15;;;4.28;;
70414;SDS011;57837;52.064;113.478;2023-04-03T16:32:54;13.77;;;4.85;;
70414;SDS011;57837;52.064;113.478;2023-04-03T16:35:58;17.60;;;5.27;;
70414;SDS011;57837;52.064;113.478;2023-04-03T16:39:03;17.35;;;4.40;;
70414;SDS011;57837;52.064;113.478;2023-04-03T16:42:07;6.88;;;3.00;;
70414;SDS011;57837;52.064;113.478;2023-04-03T16:45:12;20.30;;;4.30;;
70414;SDS011;57837;52.064;113.478;2023-04-03T16:48:16;12.88;;;3.25;;
70414;SDS011;57837;52.064;113.478;2023-04-03T16:51:19;14.88;;;3.80;;
70414;SDS011;57837;52.064;113.478;2023-04-03T16:54:22;9.55;;;3.28;;
70414;SDS011;57837;52.064;113.478;2023-04-03T16:57:26;11.30;;;3.22;;
70414;SDS011;57837;52.064;113.478;2023-04-03T17:00:30;7.18;;;2.35;;
70414;SDS011;57837;52.064;113.478;2023-04-03T17:03:34;9.32;;;2.58;;
70414;SDS011;57837;52.064;113.478;2023-04-03T17:06:38;8.23;;;2.47;;
70414;SDS011;57837;52.064;113.478;2023-04-03T17:09:42;5.57;;;2.92;;
70414;SDS011;57837;52.064;113.478;2023-04-03T17:12:46;4.80;;;2.38;;
70414;SDS011;57837;52.064;113.478;2023-04-03T17:15:50;5.20;;;1.87;;
70414;SDS011;57837;52.064;113.478;2023-04-03T17:18:54;11.07;;;2.72;;
70414;SDS011;57837;52.064;113.478;2023-04-03T17:21:58;3.92;;;1.95;;
70414;SDS011;57837;52.064;113.478;2023-04-03T17:25:03;5.85;;;2.50;;
70414;SDS011;57837;52.064;113.478;2023-04-03T17:28:07;5.55;;;1.75;;
70414;SDS011;57837;52.064;113.478;2023-04-03T17:31:10;7.15;;;2.70;;
70414;SDS011;57837;52.064;113.478;2023-04-03T17:34:13;7.57;;;2.75;;
70414;SDS011;57837;52.064;113.478;2023-04-03T17:37:17;8.97;;;3.63;;
70414;SDS011;57837;52.064;113.478;2023-04-03T17:40:20;9.73;;;3.17;;
70414;SDS011;57837;52.064;113.478;2023-04-03T17:43:24;7.32;;;2.70;;
70414;SDS011;57837;52.064;113.478;2023-04-03T17:46:27;8.27;;;2.70;;
70414;SDS011;57837;52.064;113.478;2023-04-03T17:49:33;6.10;;;2.00;;
70414;SDS011;57837;52.064;113.478;2023-04-03T17:52:36;3.50;;;1.95;;
70414;SDS011;57837;52.064;113.478;2023-04-03T17:55:40;4.00;;;1.67;;
70414;SDS011;57837;52.064;113.478;2023-04-03T17:58:43;4.55;;;2.05;;
70414;SDS011;57837;52.064;113.478;2023-04-03T18:01:46;3.83;;;1.40;;
70414;SDS011;57837;52.064;113.478;2023-04-03T18:04:51;4.38;;;1.83;;
70414;SDS011;57837;52.064;113.478;2023-04-03T18:07:55;6.17;;;1.73;;
70414;SDS011;57837;52.064;113.478;2023-04-03T18:11:00;3.30;;;1.75;;
70414;SDS011;57837;52.064;113.478;2023-04-03T18:14:04;6.45;;;1.75;;
70414;SDS011;57837;52.064;113.478;2023-04-03T18:17:09;4.40;;;1.83;;
70414;SDS011;57837;52.064;113.478;2023-04-03T18:20:14;8.40;;;2.20;;
70414;SDS011;57837;52.064;113.478;2023-04-03T18:23:18;5.22;;;2.08;;
70414;SDS011;57837;52.064;113.478;2023-04-03T18:26:24;7.63;;;2.47;;
70414;SDS011;57837;52.064;113.478;2023-04-03T18:29:31;7.28;;;2.30;;
70414;SDS011;57837;52.064;113.478;2023-04-03T18:32:36;5.35;;;2.13;;
70414;SDS011;57837;52.064;113.478;2023-04-03T18:35:40;5.72;;;2.42;;
70414;SDS011;57837;52.064;113.478;2023-04-03T18:38:44;5.13;;;2.60;;
70414;SDS011;57837;52.064;113.478;2023-04-03T18:41:48;6.10;;;2.67;;
70414;SDS011;57837;52.064;113.478;2023-04-03T18:44:52;8.77;;;2.83;;
70414;SDS011;57837;52.064;113.478;2023-04-03T18:47:59;4.53;;;2.23;;
70414;SDS011;57837;52.064;113.478;2023-04-03T18:51:03;9.77;;;3.20;;
70414;SDS011;57837;52.064;113.478;2023-04-03T18:54:07;6.15;;;2.65;;
70414;SDS011;57837;52.064;113.478;2023-04-03T18:57:11;5.88;;;2.72;;
70414;SDS011;57837;52.064;113.478;2023-04-03T19:00:16;7.78;;;3.17;;
70414;SDS011;57837;52.064;113.478;2023-04-03T19:03:21;10.85;;;2.88;;
70414;SDS011;57837;52.064;113.478;2023-04-03T19:06:24;6.57;;;2.95;;
70414;SDS011;57837;52.064;113.478;2023-04-03T19:09:28;5.03;;;2.60;;
70414;SDS011;57837;52.064;113.478;2023-04-03T19:12:32;4.70;;;2.50;;
70414;SDS011;57837;52.064;113.478;2023-04-03T19:15:37;5.30;;;2.13;;
70414;SDS011;57837;52.064;113.478;2023-04-03T19:18:41;5.63;;;2.60;;
70414;SDS011;57837;52.064;113.478;2023-04-03T19:21:44;4.63;;;2.03;;
70414;SDS011;57837;52.064;113.478;2023-04-03T19:24:47;6.35;;;2.60;;
70414;SDS011;57837;52.064;113.478;2023-04-03T19:27:51;7.40;;;2.53;;
70414;SDS011;57837;52.064;113.478;2023-04-03T19:30:54;5.72;;;2.30;;
70414;SDS011;57837;52.064;113.478;2023-04-03T19:33:59;5.97;;;2.05;;
70414;SDS011;57837;52.064;113.478;2023-04-03T19:37:04;3.65;;;1.92;;
70414;SDS011;57837;52.064;113.478;2023-04-03T19:40:07;4.50;;;2.40;;
70414;SDS011;57837;52.064;113.478;2023-04-03T19:43:11;6.65;;;2.45;;
70414;SDS011;57837;52.064;113.478;2023-04-03T19:46:15;5.22;;;1.70;;
70414;SDS011;57837;52.064;113.478;2023-04-03T19:49:22;5.37;;;2.40;;
70414;SDS011;57837;52.064;113.478;2023-04-03T19:52:26;8.90;;;2.58;;
70414;SDS011;57837;52.064;113.478;2023-04-03T19:55:29;6.22;;;2.78;;
70414;SDS011;57837;52.064;113.478;2023-04-03T19:58:32;8.15;;;3.00;;
70414;SDS011;57837;52.064;113.478;2023-04-03T20:01:35;14.02;;;3.65;;
70414;SDS011;57837;52.064;113.478;2023-04-03T20:04:39;11.90;;;3.53;;